Time;durP1;ratioP1;P1;durP2;ratioP2;P2;SDS_P1;SDS_P2;PMS_P1;PMS_P2;Temp;Humidity;BMP_temperature;BMP_pressure;BME280_temperature;BME280_humidity;BME280_pressure;Samples;Min_cycle;Max_cycle;Signal;HPM_P1;HPM_P2
2021/08/12 00:02:07;;;;;;;;;;;;;;;22.92;28.62;97963.81;5041355;28;671;-83
2021/08/12 00:04:32;;;;;;;;;;;;;;;23.03;28.75;97969.94;5041622;28;1965;-83
2021/08/12 00:06:58;;;;;;;;;;;;;;;23.05;28.54;97962.56;5041056;28;848;-83
2021/08/12 00:09:24;;;;;;;;;;;;;;;22.99;28.64;97952.22;5040584;28;1018;-83
2021/08/12 00:11:49;;;;;;;;;;;;;;;23.07;28.61;97959.25;5041400;28;666;-82
2021/08/12 00:14:14;;;;;;;;;;;;;;;22.91;28.63;97967.91;5040588;28;661;-83
2021/08/12 00:16:40;;;;;;;;;;;;;;;22.99;28.64;97964.34;5027373;28;957;-83
2021/08/12 00:19:11;;;;;;;;;;;;;;;23.13;28.45;97958.22;5044426;28;1022;-83
2021/08/12 00:21:37;;;;;;;;;;;;;;;23.21;28.29;97958.78;5045154;28;868;-83
2021/08/12 00:24:02;;;;;;;;;;;;;;;23.07;28.50;97962.88;5044613;28;646;-83
2021/08/12 00:26:27;;;;;;;;;;;;;;;23.21;28.02;97960.81;5046014;28;1957;-83
2021/08/12 00:28:53;;;;;;;;;;;;;;;23.22;28.29;97954.69;5043973;28;793;-83
2021/08/12 00:31:18;;;;;;;;;;;;;;;23.09;28.47;97960.38;5044069;28;946;-84
2021/08/12 00:33:44;;;;;;;;;;;;;;;23.12;28.33;97962.31;5044047;28;941;-83
2021/08/12 00:36:10;;;;;;;;;;;;;;;23.05;28.46;97961.75;5045635;28;926;-83
2021/08/12 00:38:36;;;;;;;;;;;;;;;23.16;28.14;97967.88;5044127;28;1194;-83
2021/08/12 00:41:02;;;;;;;;;;;;;;;23.00;28.41;97965.97;5045196;28;1305;-83
2021/08/12 00:43:29;;;;;;;;;;;;;;;22.88;28.80;97963.91;5044486;28;642;-83
2021/08/12 00:45:55;;;;;;;;;;;;;;;23.07;28.50;97971.41;5028396;28;1894;-83
2021/08/12 00:48:21;;;;;;;;;;;;;;;22.99;28.47;97957.88;5043552;28;1289;-83
2021/08/12 00:50:47;;;;;;;;;;;;;;;23.19;28.26;97961.28;5044994;28;1352;-83
2021/08/12 00:53:12;;;;;;;;;;;;;;;23.12;28.13;97961.53;5027319;28;774;-83
2021/08/12 00:55:43;;;;;;;;;;;;;;;23.07;28.17;97962.88;5028151;28;1323;-83
2021/08/12 00:58:09;;;;;;;;;;;;;;;22.94;28.48;97966.97;5027822;28;1149;-83
2021/08/12 01:00:35;;;;;;;;;;;;;;;22.88;28.59;97963.91;5027259;28;1189;-83
2021/08/12 01:03:09;;;;;;;;;;;;;;;22.85;28.72;97968.44;5043566;28;1151;-83
2021/08/12 01:05:41;;;;;;;;;;;;;;;22.94;28.72;97966.97;5027781;28;1902;-83
2021/08/12 01:08:19;;;;;;;;;;;;;;;23.13;28.22;97968.78;5027601;28;1154;-83
2021/08/12 01:10:46;;;;;;;;;;;;;;;23.05;28.27;97967.41;5027678;28;1222;-83
2021/08/12 01:13:14;;;;;;;;;;;;;;;22.87;28.68;97963.09;5027305;28;1163;-83
2021/08/12 01:15:45;;;;;;;;;;;;;;;22.85;28.77;97965.59;5027663;28;1127;-83
2021/08/12 01:18:14;;;;;;;;;;;;;;;22.97;28.47;97960.41;5042859;28;1018;-83
2021/08/12 01:20:46;;;;;;;;;;;;;;;22.93;28.73;97959.72;5027445;28;1183;-83
2021/08/12 01:23:12;;;;;;;;;;;;;;;22.91;28.70;97963.03;5043391;28;1123;-83
2021/08/12 01:25:40;;;;;;;;;;;;;;;23.10;28.26;97966.84;5027776;28;1906;-83
2021/08/12 01:28:10;;;;;;;;;;;;;;;23.02;28.18;97957.78;5025989;28;1239;-83
2021/08/12 01:31:03;;;;;;;;;;;;;;;23.07;28.34;97962.09;5027525;28;1182;-83
2021/08/12 01:33:35;;;;;;;;;;;;;;;23.00;28.54;97960.28;5028457;28;1167;-83
2021/08/12 01:36:00;;;;;;;;;;;;;;;22.98;28.37;97967.66;5043638;28;926;-83
2021/08/12 01:38:27;;;;;;;;;;;;;;;22.94;28.22;97966.97;5026512;28;1298;-83
2021/08/12 01:40:53;;;;;;;;;;;;;;;22.82;28.52;97972.19;5027856;28;848;-83
2021/08/12 01:43:20;;;;;;;;;;;;;;;22.96;28.58;97973.00;5010828;28;1187;-83
2021/08/12 01:45:50;;;;;;;;;;;;;;;22.83;28.52;97972.97;5043131;28;1976;-82
2021/08/12 01:48:16;;;;;;;;;;;;;;;22.94;28.33;97961.31;5025818;28;1143;-83
2021/08/12 01:50:42;;;;;;;;;;;;;;;22.98;28.41;97967.66;5027057;28;1079;-83
2021/08/12 01:53:08;;;;;;;;;;;;;;;23.01;28.43;97973.22;5026379;28;1285;-83
2021/08/12 01:55:34;;;;;;;;;;;;;;;23.22;28.15;97968.09;5010128;28;1477;-82
2021/08/12 01:57:59;;;;;;;;;;;;;;;23.02;28.34;97968.34;5026497;28;1186;-82
2021/08/12 02:00:25;;;;;;;;;;;;;;;22.99;28.39;97969.25;5042688;28;896;-83
2021/08/12 02:02:51;;;;;;;;;;;;;;;23.00;28.26;97968.00;5026405;28;1262;-83
2021/08/12 02:05:16;;;;;;;;;;;;;;;23.00;28.14;97971.66;5042313;28;1902;-83
2021/08/12 02:07:43;;;;;;;;;;;;;;;23.19;27.75;97971.84;5026672;28;930;-83
2021/08/12 02:10:09;;;;;;;;;;;;;;;23.03;28.10;97969.94;5009640;28;1332;-83
2021/08/12 02:12:35;;;;;;;;;;;;;;;23.09;28.11;97962.41;5026480;28;1222;-83
2021/08/12 02:15:01;;;;;;;;;;;;;;;23.06;28.08;97960.50;5042041;28;1138;-83
2021/08/12 02:17:26;;;;;;;;;;;;;;;23.07;28.10;97962.09;5009462;28;1285;-82
2021/08/12 02:19:52;;;;;;;;;;;;;;;23.01;27.96;97961.09;5025791;28;1316;-83
2021/08/12 02:22:19;;;;;;;;;;;;;;;23.12;28.06;97964.34;5026731;28;1179;-83
2021/08/12 02:24:53;;;;;;;;;;;;;;;22.99;28.14;97963.56;5025787;28;1898;-83
2021/08/12 02:27:20;;;;;;;;;;;;;;;23.12;28.19;97964.34;5026558;28;1218;-83
2021/08/12 02:29:47;;;;;;;;;;;;;;;22.93;28.25;97966.19;5025591;28;1130;-83
2021/08/12 02:32:13;;;;;;;;;;;;;;;22.91;28.17;97962.22;5025817;28;1244;-83
2021/08/12 02:34:39;;;;;;;;;;;;;;;22.92;28.36;97963.81;5025557;28;1218;-83
2021/08/12 02:37:05;;;;;;;;;;;;;;;22.81;28.21;97969.81;5042420;28;674;-83
2021/08/12 02:39:33;;;;;;;;;;;;;;;23.01;27.71;97966.75;5025520;28;1271;-83
2021/08/12 02:41:58;;;;;;;;;;;;;;;22.84;28.34;97969.66;5042593;28;1178;-83
2021/08/12 02:44:24;;;;;;;;;;;;;;;22.99;28.21;97969.25;5024888;28;1975;-82
2021/08/12 02:46:49;;;;;;;;;;;;;;;22.87;28.17;97974.44;5026129;28;1190;-83
2021/08/12 02:49:15;;;;;;;;;;;;;;;22.93;28.06;97971.06;5025496;28;1256;-83
2021/08/12 02:51:40;;;;;;;;;;;;;;;22.77;28.23;97969.13;5025835;28;1111;-82
2021/08/12 02:54:06;;;;;;;;;;;;;;;22.81;28.50;97978.31;5025560;28;1361;-82
2021/08/12 02:56:34;;;;;;;;;;;;;;;22.88;28.35;97981.72;5041803;28;884;-83
2021/08/12 02:59:02;;;;;;;;;;;;;;;22.97;27.87;97983.09;5025423;28;1163;-83
2021/08/12 03:01:28;;;;;;;;;;;;;;;22.85;28.24;97982.63;5025589;28;1177;-83
2021/08/12 03:03:53;;;;;;;;;;;;;;;22.96;28.32;97988.00;5025141;28;816;-82
2021/08/12 03:06:19;;;;;;;;;;;;;;;22.95;28.11;97991.25;5042370;28;1989;-83
2021/08/12 03:09:17;;;;;;;;;;;;;;;22.88;28.40;97984.56;5025329;28;1469;-83
2021/08/12 03:11:43;;;;;;;;;;;;;;;22.96;27.92;97987.19;5042224;28;658;-83
2021/08/12 03:14:08;;;;;;;;;;;;;;;22.99;28.24;97986.28;5040584;28;931;-80
2021/08/12 03:16:34;;;;;;;;;;;;;;;22.96;28.14;97978.69;5024935;28;1206;-83
2021/08/12 03:18:59;;;;;;;;;;;;;;;22.97;28.17;97991.63;5024613;28;1238;-83
2021/08/12 03:21:27;;;;;;;;;;;;;;;23.07;28.40;97993.31;5025664;28;1131;-82
2021/08/12 03:23:53;;;;;;;;;;;;;;;23.00;28.48;97987.84;5041576;28;631;-83
2021/08/12 03:26:18;;;;;;;;;;;;;;;22.94;28.19;97986.84;5041397;28;1910;-82
2021/08/12 03:28:44;;;;;;;;;;;;;;;22.70;28.66;97992.84;5041188;28;1309;-83
2021/08/12 03:31:09;;;;;;;;;;;;;;;22.89;28.47;97993.88;5041749;28;1158;-83
2021/08/12 03:33:35;;;;;;;;;;;;;;;22.94;28.56;97995.34;5024528;28;1152;-82
2021/08/12 03:36:01;;;;;;;;;;;;;;;23.00;28.34;97997.19;5041956;28;1332;-82
2021/08/12 03:38:27;;;;;;;;;;;;;;;22.92;28.42;98012.84;5024466;28;607;-83
2021/08/12 03:40:53;;;;;;;;;;;;;;;23.04;28.26;98022.59;5025388;28;1375;-84
2021/08/12 03:43:19;;;;;;;;;;;;;;;22.88;28.63;98007.28;5040853;28;1150;-83
2021/08/12 03:45:46;;;;;;;;;;;;;;;22.82;28.45;98011.88;5025081;28;1887;-83
2021/08/12 03:48:11;;;;;;;;;;;;;;;22.84;28.46;98008.59;5024526;28;1285;-83
2021/08/12 03:50:36;;;;;;;;;;;;;;;22.91;28.49;98024.66;5040930;28;894;-82
2021/08/12 03:53:02;;;;;;;;;;;;;;;22.75;28.57;98017.00;5040433;28;1147;-79
2021/08/12 03:55:28;;;;;;;;;;;;;;;22.91;28.57;98018.97;5040601;28;721;-82
2021/08/12 03:57:53;;;;;;;;;;;;;;;22.94;28.62;98023.72;5039713;28;931;-81
2021/08/12 04:00:21;;;;;;;;;;;;;;;22.86;28.62;98023.94;5023473;28;1278;-81
2021/08/12 04:02:47;;;;;;;;;;;;;;;22.97;28.18;98028.50;5023400;28;1143;-81
2021/08/12 04:05:13;;;;;;;;;;;;;;;23.00;28.22;98028.41;5022993;28;1971;-81
2021/08/12 04:07:38;;;;;;;;;;;;;;;23.00;28.42;98030.41;5039752;28;1115;-80
2021/08/12 04:10:04;;;;;;;;;;;;;;;22.99;28.48;98038.13;5039650;28;1249;-80
2021/08/12 04:12:31;;;;;;;;;;;;;;;23.04;28.37;98037.56;5039362;28;655;-80
2021/08/12 04:14:57;;;;;;;;;;;;;;;22.93;28.37;98028.59;5039398;28;923;-82
2021/08/12 04:17:22;;;;;;;;;;;;;;;22.72;29.02;98035.72;5039345;28;950;-82
2021/08/12 04:19:47;;;;;;;;;;;;;;;22.99;28.30;98043.03;5039557;28;1183;-82
2021/08/12 04:22:13;;;;;;;;;;;;;;;23.01;28.23;98035.66;5039863;28;646;-82
2021/08/12 04:24:39;;;;;;;;;;;;;;;23.06;28.38;98034.31;5022808;28;1902;-81
2021/08/12 04:27:05;;;;;;;;;;;;;;;22.90;28.32;98037.22;5023617;28;1323;-82
2021/08/12 04:29:31;;;;;;;;;;;;;;;23.00;28.53;98038.94;5039993;28;1108;-81
2021/08/12 04:31:56;;;;;;;;;;;;;;;22.83;28.85;98041.84;5039599;28;948;-81
2021/08/12 04:34:22;;;;;;;;;;;;;;;22.76;28.68;98036.41;5022856;28;980;-82
2021/08/12 04:36:47;;;;;;;;;;;;;;;22.95;28.69;98036.66;5039653;28;738;-81
2021/08/12 04:39:13;;;;;;;;;;;;;;;23.02;28.65;98042.13;5006812;28;1233;-82
2021/08/12 04:41:38;;;;;;;;;;;;;;;22.97;28.37;98039.84;5039779;28;1168;-82
2021/08/12 04:44:04;;;;;;;;;;;;;;;22.94;28.62;98040.75;5039340;28;1272;-82
2021/08/12 04:46:30;;;;;;;;;;;;;;;23.11;28.53;98033.72;5040094;28;1891;-82
2021/08/12 04:48:56;;;;;;;;;;;;;;;22.98;28.89;98044.28;5039219;28;1260;-82
2021/08/12 04:51:22;;;;;;;;;;;;;;;22.91;28.85;98042.47;5039715;28;1284;-82
2021/08/12 04:53:48;;;;;;;;;;;;;;;22.79;29.17;98046.81;5039496;28;1239;-82
2021/08/12 04:56:14;;;;;;;;;;;;;;;22.80;29.00;98051.28;5039978;28;1330;-82
2021/08/12 04:58:40;;;;;;;;;;;;;;;22.92;29.04;98054.59;5022582;28;1257;-82
2021/08/12 05:01:06;;;;;;;;;;;;;;;22.91;29.13;98058.69;5039731;28;860;-82
2021/08/12 05:03:32;;;;;;;;;;;;;;;23.05;28.94;98063.91;5026038;28;1252;-82
2021/08/12 05:05:59;;;;;;;;;;;;;;;23.10;28.51;98052.00;5043045;28;1967;-81
2021/08/12 05:08:26;;;;;;;;;;;;;;;22.95;28.84;98065.84;5026739;28;1157;-82
2021/08/12 05:10:51;;;;;;;;;;;;;;;22.94;29.03;98069.13;5043629;28;663;-81
2021/08/12 05:13:16;;;;;;;;;;;;;;;22.90;29.00;98071.28;5042254;28;1175;-82
2021/08/12 05:15:42;;;;;;;;;;;;;;;22.93;29.15;98067.53;5042701;28;1182;-81
2021/08/12 05:18:09;;;;;;;;;;;;;;;23.12;28.79;98070.16;5042627;28;1154;-81
2021/08/12 05:20:34;;;;;;;;;;;;;;;23.08;28.83;98074.38;5043036;28;782;-82
2021/08/12 05:23:00;;;;;;;;;;;;;;;23.06;28.74;98068.34;5042281;28;1166;-81
2021/08/12 05:25:26;;;;;;;;;;;;;;;22.96;29.11;98080.84;5042636;28;1898;-82
2021/08/12 05:27:51;;;;;;;;;;;;;;;22.98;28.89;98075.50;5042155;28;864;-81
2021/08/12 05:30:17;;;;;;;;;;;;;;;22.97;28.94;98082.41;5042464;28;1150;-81
2021/08/12 05:32:43;;;;;;;;;;;;;;;22.97;29.13;98082.41;5042510;28;1187;-81
2021/08/12 05:35:08;;;;;;;;;;;;;;;22.95;29.11;98077.19;5042379;28;1170;-81
2021/08/12 05:37:34;;;;;;;;;;;;;;;22.97;29.29;98082.41;5042602;28;1309;-82
2021/08/12 05:39:59;;;;;;;;;;;;;;;22.94;29.12;98091.81;5042794;28;705;-82
2021/08/12 05:42:26;;;;;;;;;;;;;;;23.04;29.21;98091.50;5025937;28;1400;-82
2021/08/12 05:44:51;;;;;;;;;;;;;;;22.99;29.48;98089.22;5042014;28;1946;-82
2021/08/12 05:47:17;;;;;;;;;;;;;;;23.01;29.01;98091.63;5042373;28;1153;-81
2021/08/12 05:49:43;;;;;;;;;;;;;;;22.93;29.38;98095.91;5042141;28;1243;-81
2021/08/12 05:52:08;;;;;;;;;;;;;;;22.85;29.39;98096.13;5042408;28;1240;-81
2021/08/12 05:54:34;;;;;;;;;;;;;;;23.01;29.34;98097.28;5042493;28;634;-81
2021/08/12 05:56:59;;;;;;;;;;;;;;;23.01;29.33;98097.28;5041964;28;1232;-82
2021/08/12 05:59:25;;;;;;;;;;;;;;;22.97;29.38;98102.28;5024890;28;914;-82
2021/08/12 06:01:50;;;;;;;;;;;;;;;23.15;28.95;98094.00;5025407;28;1211;-82
2021/08/12 06:04:25;;;;;;;;;;;;;;;23.13;29.18;98097.28;5041717;28;1894;-81
2021/08/12 06:06:51;;;;;;;;;;;;;;;22.98;29.36;98098.19;5042110;28;1256;-81
2021/08/12 06:09:16;;;;;;;;;;;;;;;22.91;29.67;98095.59;5041494;28;1115;-80
2021/08/12 06:11:42;;;;;;;;;;;;;;;22.93;29.68;98104.44;5042098;28;844;-81
2021/08/12 06:14:08;;;;;;;;;;;;;;;22.98;29.82;98096.16;5040805;28;1233;-82
2021/08/12 06:16:33;;;;;;;;;;;;;;;23.03;29.66;98100.47;5041869;28;1118;-82
2021/08/12 06:18:59;;;;;;;;;;;;;;;23.06;29.53;98096.75;5041402;28;1305;-81
2021/08/12 06:21:25;;;;;;;;;;;;;;;23.00;29.60;98096.50;5041754;28;1118;-81
2021/08/12 06:23:51;;;;;;;;;;;;;;;23.01;29.60;98098.09;5024922;28;1214;-82
2021/08/12 06:26:17;;;;;;;;;;;;;;;23.12;29.25;98103.44;5041761;28;1902;-82
2021/08/12 06:28:44;;;;;;;;;;;;;;;23.00;29.39;98112.72;5040437;28;868;-81
2021/08/12 06:31:11;;;;;;;;;;;;;;;23.07;29.32;98107.63;5041937;28;972;-82
2021/08/12 06:33:37;;;;;;;;;;;;;;;23.13;29.56;98105.03;5041274;28;1139;-81
2021/08/12 06:36:02;;;;;;;;;;;;;;;22.95;29.70;98108.41;5042109;28;1229;-80
2021/08/12 06:38:28;;;;;;;;;;;;;;;23.04;29.54;98102.06;5041244;28;635;-81
2021/08/12 06:40:54;;;;;;;;;;;;;;;23.10;29.77;98103.06;5041535;28;1297;-80
2021/08/12 06:43:20;;;;;;;;;;;;;;;23.07;29.65;98107.63;5040650;28;921;-81
2021/08/12 06:45:51;;;;;;;;;;;;;;;23.13;29.71;98116.38;5041945;28;1973;-81
2021/08/12 06:48:17;;;;;;;;;;;;;;;23.13;29.57;98117.16;5041421;28;1182;-82
2021/08/12 06:50:43;;;;;;;;;;;;;;;23.19;29.54;98123.06;5040682;28;924;-81
2021/08/12 06:53:08;;;;;;;;;;;;;;;23.03;29.79;98120.34;5040395;28;809;-82
2021/08/12 06:55:35;;;;;;;;;;;;;;;23.15;29.57;98125.22;5024724;28;1321;-81
2021/08/12 06:58:01;;;;;;;;;;;;;;;23.02;29.82;98115.91;5040726;28;829;-82
2021/08/12 07:00:27;;;;;;;;;;;;;;;22.86;29.81;98120.41;5041530;28;1284;-81
2021/08/12 07:02:54;;;;;;;;;;;;;;;23.04;29.74;98110.56;5041035;28;1222;-82
2021/08/12 07:05:21;;;;;;;;;;;;;;;23.12;29.84;98123.31;5024808;28;1973;-82
2021/08/12 07:07:46;;;;;;;;;;;;;;;23.22;29.50;98118.53;5040869;28;1142;-82
2021/08/12 07:10:14;;;;;;;;;;;;;;;23.14;29.85;98126.47;5040554;28;1283;-82
2021/08/12 07:12:39;;;;;;;;;;;;;;;23.16;29.86;98118.31;5040632;28;1236;-81
2021/08/12 07:15:05;;;;;;;;;;;;;;;23.20;29.84;98127.50;5024189;28;1132;-81
2021/08/12 07:17:32;;;;;;;;;;;;;;;23.23;29.61;98120.91;5024319;28;1334;-81
2021/08/12 07:20:04;;;;;;;;;;;;;;;23.25;29.76;98129.78;5040218;28;1156;-82
2021/08/12 07:22:29;;;;;;;;;;;;;;;23.15;29.77;98125.22;5024353;28;1280;-81
2021/08/12 07:24:58;;;;;;;;;;;;;;;23.18;29.66;98134.88;5039584;28;1905;-82
2021/08/12 07:27:23;;;;;;;;;;;;;;;23.09;29.70;98129.88;5040009;28;1143;-82
2021/08/12 07:29:49;;;;;;;;;;;;;;;23.16;29.99;98132.50;5040062;28;1049;-79
2021/08/12 07:32:15;;;;;;;;;;;;;;;23.31;29.56;98133.66;5024138;28;1175;-82
2021/08/12 07:34:47;;;;;;;;;;;;;;;23.28;29.49;98128.88;5040229;28;1198;-82
2021/08/12 07:37:12;;;;;;;;;;;;;;;23.22;29.95;98135.56;5040838;28;1194;-82
2021/08/12 07:39:38;;;;;;;;;;;;;;;23.16;30.04;98128.84;5023743;28;1144;-81
2021/08/12 07:42:04;;;;;;;;;;;;;;;23.09;30.25;98132.72;5040204;28;1267;-81
2021/08/12 07:44:30;;;;;;;;;;;;;;;23.17;30.03;98144.66;5007629;28;1999;-82
2021/08/12 07:46:56;;;;;;;;;;;;;;;23.11;29.99;98133.06;5040435;28;1194;-81
2021/08/12 07:49:21;;;;;;;;;;;;;;;23.17;30.02;98136.13;5040721;28;657;-82
2021/08/12 07:51:47;;;;;;;;;;;;;;;23.18;29.88;98141.34;5040518;28;710;-80
2021/08/12 07:54:13;;;;;;;;;;;;;;;23.16;30.15;98135.34;5040444;28;942;-81
2021/08/12 07:56:38;;;;;;;;;;;;;;;23.16;29.96;98138.19;5039960;28;964;-82
2021/08/12 07:59:04;;;;;;;;;;;;;;;23.17;29.92;98136.94;5040662;28;963;-82
2021/08/12 08:01:29;;;;;;;;;;;;;;;23.00;30.34;98124.06;5040188;28;658;-81
2021/08/12 08:03:58;;;;;;;;;;;;;;;23.18;30.15;98135.69;5040541;28;670;-82
2021/08/12 08:06:24;;;;;;;;;;;;;;;23.18;30.33;98130.00;5039928;28;1902;-82
2021/08/12 08:08:49;;;;;;;;;;;;;;;23.20;30.28;98130.34;5022489;28;984;-82
2021/08/12 08:11:17;;;;;;;;;;;;;;;23.36;29.96;98135.94;5039785;28;855;-82
2021/08/12 08:13:42;;;;;;;;;;;;;;;23.36;30.01;98146.47;5039323;28;946;-81
2021/08/12 08:16:07;;;;;;;;;;;;;;;23.29;30.05;98153.16;5039766;28;662;-81
2021/08/12 08:18:33;;;;;;;;;;;;;;;23.28;30.06;98151.59;5038908;28;1126;-81
2021/08/12 08:20:58;;;;;;;;;;;;;;;23.12;30.35;98148.84;5040580;28;690;-82
2021/08/12 08:23:24;;;;;;;;;;;;;;;23.15;30.04;98147.94;5040184;28;840;-81
2021/08/12 08:25:50;;;;;;;;;;;;;;;23.17;30.46;98144.66;5039696;28;1913;-82
2021/08/12 08:28:15;;;;;;;;;;;;;;;23.27;30.08;98150.00;5040023;28;833;-82
2021/08/12 08:30:41;;;;;;;;;;;;;;;23.18;30.29;98138.50;5039585;28;786;-81
2021/08/12 08:33:08;;;;;;;;;;;;;;;23.18;30.35;98146.25;5040133;28;1336;-81
2021/08/12 08:35:34;;;;;;;;;;;;;;;23.13;30.10;98147.59;5040366;28;734;-81
2021/08/12 08:38:00;;;;;;;;;;;;;;;23.02;30.59;98135.78;5042245;28;1105;-81
2021/08/12 08:40:25;;;;;;;;;;;;;;;23.15;30.43;98136.56;5042973;28;899;-81
2021/08/12 08:42:51;;;;;;;;;;;;;;;23.37;29.75;98154.56;5043934;28;868;-82
2021/08/12 08:45:19;;;;;;;;;;;;;;;23.28;30.18;98145.91;5043033;28;1921;-81
2021/08/12 08:47:45;;;;;;;;;;;;;;;23.31;29.92;98149.88;5043235;28;666;-81
2021/08/12 08:50:10;;;;;;;;;;;;;;;23.27;30.18;98143.53;5059567;28;630;-81
2021/08/12 08:52:36;;;;;;;;;;;;;;;23.16;30.28;98145.88;5026565;28;1166;-81
2021/08/12 08:55:01;;;;;;;;;;;;;;;23.19;30.39;98150.66;5042756;28;893;-81
2021/08/12 08:57:27;;;;;;;;;;;;;;;23.39;30.00;98143.53;5043769;28;1035;-82
2021/08/12 08:59:52;;;;;;;;;;;;;;;23.26;30.15;98148.41;5026264;28;927;-81
2021/08/12 09:02:18;;;;;;;;;;;;;;;23.19;30.29;98153.50;5042952;28;714;-81
2021/08/12 09:04:43;;;;;;;;;;;;;;;23.31;30.04;98142.16;5042655;28;1987;-81
2021/08/12 09:07:09;;;;;;;;;;;;;;;23.25;30.25;98146.00;5042601;28;950;-81
2021/08/12 09:09:34;;;;;;;;;;;;;;;23.26;30.28;98142.75;5042789;28;995;-81
2021/08/12 09:12:00;;;;;;;;;;;;;;;23.25;30.06;98140.34;5042858;28;878;-81
2021/08/12 09:14:35;;;;;;;;;;;;;;;23.34;29.86;98144.09;5042369;28;878;-81
2021/08/12 09:17:22;;;;;;;;;;;;;;;23.31;30.13;98145.00;5043851;28;694;-81
2021/08/12 09:20:06;;;;;;;;;;;;;;;23.20;30.55;98150.19;5043042;28;1006;-81
2021/08/12 09:22:52;;;;;;;;;;;;;;;23.24;30.41;98152.94;5043081;28;971;-80
2021/08/12 09:25:30;;;;;;;;;;;;;;;23.24;30.39;98150.91;5042313;28;1894;-81
2021/08/12 09:28:14;;;;;;;;;;;;;;;23.26;30.30;98154.09;5042999;28;615;-81
2021/08/12 09:30:41;;;;;;;;;;;;;;;23.29;30.23;98156.00;5043231;28;711;-81
2021/08/12 09:33:06;;;;;;;;;;;;;;;23.26;30.50;98154.09;5042906;28;666;-81
2021/08/12 09:35:31;;;;;;;;;;;;;;;23.44;30.31;98153.53;5042136;28;699;-79
2021/08/12 09:38:08;;;;;;;;;;;;;;;23.35;30.23;98151.34;5042367;28;1112;-80
2021/08/12 09:40:33;;;;;;;;;;;;;;;23.35;30.68;98145.66;5042105;28;879;-81
2021/08/12 09:43:00;;;;;;;;;;;;;;;23.39;30.70;98152.03;5042344;28;725;-81
2021/08/12 09:45:26;;;;;;;;;;;;;;;23.29;30.70;98147.50;5042238;28;1890;-81
2021/08/12 09:47:52;;;;;;;;;;;;;;;23.35;30.63;98150.56;5042080;28;647;-81
2021/08/12 09:50:24;;;;;;;;;;;;;;;23.29;30.84;98152.38;5042310;28;722;-81
2021/08/12 09:52:49;;;;;;;;;;;;;;;23.37;30.66;98151.72;5041786;28;1079;-80
2021/08/12 09:55:18;;;;;;;;;;;;;;;23.38;30.47;98155.34;5041634;28;892;-81
2021/08/12 09:57:46;;;;;;;;;;;;;;;23.37;30.86;98160.22;5041940;28;831;-81
2021/08/12 10:00:12;;;;;;;;;;;;;;;23.32;31.01;98152.28;5042354;28;1151;-81
2021/08/12 10:02:37;;;;;;;;;;;;;;;23.25;31.13;98160.19;5042554;28;622;-81
2021/08/12 10:05:04;;;;;;;;;;;;;;;23.47;30.45;98168.88;5041491;28;1898;-81
2021/08/12 10:07:45;;;;;;;;;;;;;;;23.64;30.30;98150.50;5041121;28;845;-82
2021/08/12 10:10:10;;;;;;;;;;;;;;;23.60;30.30;98161.13;5041957;28;914;-83
2021/08/12 10:12:35;;;;;;;;;;;;;;;23.51;30.35;98161.00;5037776;28;1360;-82
2021/08/12 10:15:01;;;;;;;;;;;;;;;23.52;30.48;98160.59;5023093;28;721;-83
2021/08/12 10:17:27;;;;;;;;;;;;;;;23.42;30.25;98160.91;5022859;28;813;-83
2021/08/12 10:19:52;;;;;;;;;;;;;;;23.47;30.31;98157.50;5005972;28;1209;-83
2021/08/12 10:22:18;;;;;;;;;;;;;;;23.42;30.54;98155.25;5023248;28;900;-83
2021/08/12 10:24:44;;;;;;;;;;;;;;;23.40;30.70;98153.63;5022444;28;1906;-80
2021/08/12 10:27:09;;;;;;;;;;;;;;;23.55;30.31;98158.84;5022637;28;719;-82
2021/08/12 10:29:35;;;;;;;;;;;;;;;23.57;30.37;98156.34;5022213;28;1280;-82
2021/08/12 10:32:00;;;;;;;;;;;;;;;23.46;30.43;98162.38;5022843;28;781;-82
2021/08/12 10:34:26;;;;;;;;;;;;;;;23.46;30.46;98158.75;5021478;28;873;-82
2021/08/12 10:36:51;;;;;;;;;;;;;;;23.50;30.23;98165.09;5023667;28;891;-83
2021/08/12 10:39:17;;;;;;;;;;;;;;;23.51;30.29;98158.97;5021478;28;946;-82
2021/08/12 10:41:42;;;;;;;;;;;;;;;23.56;30.35;98154.75;5021749;28;653;-82
2021/08/12 10:44:18;;;;;;;;;;;;;;;23.60;29.93;98144.09;5021823;28;766;-82
2021/08/12 10:46:43;;;;;;;;;;;;;;;23.52;30.01;98152.06;5021645;28;1915;-82
2021/08/12 10:49:28;;;;;;;;;;;;;;;23.50;30.35;98156.59;5021327;28;1147;-82
2021/08/12 10:52:06;;;;;;;;;;;;;;;23.59;30.06;98151.81;5022070;28;873;-82
2021/08/12 10:54:32;;;;;;;;;;;;;;;23.46;30.23;98153.84;5021927;28;647;-82
2021/08/12 10:57:17;;;;;;;;;;;;;;;23.55;30.31;98164.53;5021336;28;638;-82
2021/08/12 10:59:43;;;;;;;;;;;;;;;23.33;30.32;98176.56;5021831;28;706;-81
2021/08/12 11:02:26;;;;;;;;;;;;;;;23.46;30.37;98168.06;5021370;28;616;-82
2021/08/12 11:04:52;;;;;;;;;;;;;;;23.34;30.33;98172.47;5021614;28;1969;-82
2021/08/12 11:07:37;;;;;;;;;;;;;;;23.34;30.40;98161.13;5021291;28;948;-82
2021/08/12 11:10:03;;;;;;;;;;;;;;;23.29;30.39;98161.69;5021053;28;635;-82
2021/08/12 11:12:47;;;;;;;;;;;;;;;23.42;30.00;98155.25;5021385;28;670;-82
2021/08/12 11:15:13;;;;;;;;;;;;;;;23.28;30.46;98148.75;5021789;28;733;-82
2021/08/12 11:17:54;;;;;;;;;;;;;;;23.39;30.25;98157.72;5021811;28;607;-82
2021/08/12 11:20:55;;;;;;;;;;;;;;;23.49;30.20;98169.22;5021242;28;883;-82
2021/08/12 11:23:20;;;;;;;;;;;;;;;23.52;29.93;98168.28;4999852;28;1246;-81
2021/08/12 11:26:04;;;;;;;;;;;;;;;23.61;29.52;98157.03;5017285;28;1961;-82
2021/08/12 11:28:39;;;;;;;;;;;;;;;23.48;30.23;98159.09;5021501;28;682;-81
2021/08/12 11:31:28;;;;;;;;;;;;;;;23.55;30.02;98158.84;5021832;28;687;-81
2021/08/12 11:33:54;;;;;;;;;;;;;;;23.71;29.81;98155.94;5011514;28;996;-82
2021/08/12 11:36:28;;;;;;;;;;;;;;;23.52;30.00;98159.75;5021013;28;967;-81
2021/08/12 11:38:54;;;;;;;;;;;;;;;23.55;29.68;98165.34;5020038;28;893;-81
2021/08/12 11:41:20;;;;;;;;;;;;;;;23.32;30.20;98149.44;5020477;28;909;-81
2021/08/12 11:43:45;;;;;;;;;;;;;;;23.27;30.50;98147.16;5020321;28;722;-82
2021/08/12 11:46:11;;;;;;;;;;;;;;;23.34;30.40;98158.28;5020649;28;1902;-81
2021/08/12 11:48:37;;;;;;;;;;;;;;;23.51;30.10;98156.13;5020072;28;698;-81
2021/08/12 11:51:02;;;;;;;;;;;;;;;23.35;30.19;98159.88;5020685;28;1101;-82
2021/08/12 11:56:38;;;;;;;;;;;;;;;23.59;31.30;98156.72;5018876;28;1295;-82
2021/08/12 11:59:03;;;;;;;;;;;;;;;23.88;31.47;98154.56;5020216;28;877;-82
2021/08/12 12:01:30;;;;;;;;;;;;;;;23.68;31.68;98148.31;5020296;28;714;-81
2021/08/12 12:04:02;;;;;;;;;;;;;;;23.53;31.39;98167.06;5020838;28;665;-82
2021/08/12 12:06:29;;;;;;;;;;;;;;;23.60;30.78;98158.28;5019796;28;1989;-81
2021/08/12 12:08:54;;;;;;;;;;;;;;;23.69;30.12;98152.75;5020693;28;693;-81
2021/08/12 12:11:20;;;;;;;;;;;;;;;23.58;30.01;98153.06;5020673;28;903;-81
2021/08/12 12:13:45;;;;;;;;;;;;;;;23.35;29.82;98151.34;5023310;28;928;-81
2021/08/12 12:16:11;;;;;;;;;;;;;;;23.26;29.66;98158.94;5024104;28;952;-81
2021/08/12 12:18:44;;;;;;;;;;;;;;;23.37;29.51;98146.03;5024076;28;1161;-81
2021/08/12 12:21:17;;;;;;;;;;;;;;;23.31;29.42;98156.38;5008351;28;1293;-81
2021/08/12 12:23:44;;;;;;;;;;;;;;;23.29;28.91;98152.38;5023942;28;694;-81
2021/08/12 12:26:19;;;;;;;;;;;;;;;23.27;29.16;98154.88;5023899;28;1902;-81
2021/08/12 12:28:48;;;;;;;;;;;;;;;23.47;28.37;98154.69;5023000;28;881;-81
2021/08/12 12:31:17;;;;;;;;;;;;;;;23.26;28.66;98145.56;5023892;28;661;-82
2021/08/12 12:33:43;;;;;;;;;;;;;;;23.27;28.58;98149.22;5022966;28;782;-79
2021/08/12 12:36:09;;;;;;;;;;;;;;;23.32;28.50;98146.59;5023619;28;862;-81
2021/08/12 12:38:35;;;;;;;;;;;;;;;23.09;28.38;98150.53;5024139;28;639;-81
2021/08/12 12:41:04;;;;;;;;;;;;;;;23.25;28.14;98157.38;5023366;28;968;-81
2021/08/12 12:43:31;;;;;;;;;;;;;;;23.13;28.48;98156.09;5022546;28;901;-82
2021/08/12 12:45:57;;;;;;;;;;;;;;;23.27;27.88;98158.53;5024284;28;1982;-82
2021/08/12 12:48:28;;;;;;;;;;;;;;;23.06;27.93;98153.50;5024317;28;627;-81
2021/08/12 12:50:54;;;;;;;;;;;;;;;23.18;27.93;98152.72;5024333;28;677;-81
2021/08/12 12:53:26;;;;;;;;;;;;;;;23.30;27.45;98160.44;5023965;28;619;-81
2021/08/12 12:55:52;;;;;;;;;;;;;;;23.36;27.55;98154.97;5023245;28;1186;-82
2021/08/12 12:58:18;;;;;;;;;;;;;;;23.18;27.75;98158.38;5022402;28;976;-82
2021/08/12 13:00:44;;;;;;;;;;;;;;;23.26;27.41;98148.41;5024216;28;971;-82
2021/08/12 13:03:10;;;;;;;;;;;;;;;23.14;27.35;98154.84;5023095;28;1264;-82
2021/08/12 13:05:55;;;;;;;;;;;;;;;23.33;27.28;98159.53;5023526;28;1906;-82
2021/08/12 13:08:21;;;;;;;;;;;;;;;23.27;27.25;98157.72;5023009;28;654;-82